Time;durP1;ratioP1;P1;durP2;ratioP2;P2;SDS_P1;SDS_P2;PMS_P1;PMS_P2;Temp;Humidity;BMP_temperature;BMP_pressure;BME280_temperature;BME280_humidity;BME280_pressure;Samples;Min_cycle;Max_cycle;Signal;HPM_P1;HPM_P2
2024/04/19 00:00:35;;;;;;;1.45;0.50;;;;;;;;;;5367147;26;20011;-70
2024/04/19 00:03:01;;;;;;;0.52;0.52;;;;;;;;;;5369904;26;20004;-70
2024/04/19 00:05:27;;;;;;;1.58;0.63;;;;;;;;;;5369434;26;20023;-69
2024/04/19 00:07:53;;;;;;;1.17;0.80;;;;;;;;;;5363231;26;20012;-69
2024/04/19 00:10:19;;;;;;;5.05;0.95;;;;;;;;;;5364278;26;20189;-69
2024/04/19 00:12:45;;;;;;;1.95;0.70;;;;;;;;;;5361518;26;19997;-69
2024/04/19 00:15:10;;;;;;;2.13;0.70;;;;;;;;;;5363339;26;20285;-70
2024/04/19 00:17:36;;;;;;;1.80;0.70;;;;;;;;;;5361361;26;20021;-70
2024/04/19 00:20:02;;;;;;;1.58;0.77;;;;;;;;;;5365634;26;20089;-69
2024/04/19 00:22:28;;;;;;;0.77;0.70;;;;;;;;;;5370340;26;20011;-69
2024/04/19 00:24:54;;;;;;;4.40;0.73;;;;;;;;;;5376224;26;20031;-69
2024/04/19 00:27:20;;;;;;;4.35;0.88;;;;;;;;;;5365190;26;20016;-70
2024/04/19 00:29:46;;;;;;;0.70;0.55;;;;;;;;;;5352253;26;20005;-69
2024/04/19 00:32:12;;;;;;;0.77;0.57;;;;;;;;;;5361909;26;20038;-69
2024/04/19 00:34:38;;;;;;;1.27;0.75;;;;;;;;;;5361633;26;20000;-69
2024/04/19 00:37:04;;;;;;;1.10;0.55;;;;;;;;;;5355039;26;20330;-69
2024/04/19 00:39:30;;;;;;;0.93;0.70;;;;;;;;;;5359611;26;20032;-69
2024/04/19 00:41:56;;;;;;;1.98;0.70;;;;;;;;;;5352983;26;20001;-69
2024/04/19 00:44:22;;;;;;;1.58;0.60;;;;;;;;;;5365408;26;20004;-70
2024/04/19 00:46:48;;;;;;;0.65;0.60;;;;;;;;;;5355546;26;19996;-69
2024/04/19 00:49:14;;;;;;;4.15;0.65;;;;;;;;;;5359095;26;20081;-69
2024/04/19 00:51:40;;;;;;;2.70;0.90;;;;;;;;;;5363373;26;20407;-70
2024/04/19 00:54:06;;;;;;;1.58;1.02;;;;;;;;;;5354545;26;20044;-69
2024/04/19 00:56:32;;;;;;;0.77;0.50;;;;;;;;;;5349638;26;20394;-69
2024/04/19 00:58:58;;;;;;;3.55;0.82;;;;;;;;;;5358348;26;20080;-69
2024/04/19 01:01:24;;;;;;;3.10;0.75;;;;;;;;;;5357552;26;20146;-69
2024/04/19 01:03:50;;;;;;;1.80;0.80;;;;;;;;;;5353465;26;20019;-69
2024/04/19 01:06:16;;;;;;;0.52;0.50;;;;;;;;;;5356814;26;19997;-70
2024/04/19 01:08:42;;;;;;;2.47;0.68;;;;;;;;;;5369331;26;20008;-69
2024/04/19 01:11:08;;;;;;;5.05;0.95;;;;;;;;;;5353071;26;20016;-70
2024/04/19 01:13:34;;;;;;;1.90;0.95;;;;;;;;;;5358666;26;20359;-69
2024/04/19 01:16:00;;;;;;;5.13;0.95;;;;;;;;;;5354729;26;20011;-69
2024/04/19 01:18:26;;;;;;;1.70;0.80;;;;;;;;;;5362310;26;20021;-69
2024/04/19 01:20:52;;;;;;;1.95;1.00;;;;;;;;;;5358269;26;20012;-69
2024/04/19 01:23:19;;;;;;;1.20;0.88;;;;;;;;;;5351748;26;20434;-69
2024/04/19 01:25:45;;;;;;;1.25;0.73;;;;;;;;;;5362397;26;20036;-70
2024/04/19 01:28:11;;;;;;;1.17;0.75;;;;;;;;;;5353166;26;20131;-70
2024/04/19 01:30:45;;;;;;;1.40;0.80;;;;;;;;;;5365093;26;20000;-69
2024/04/19 01:33:11;;;;;;;2.40;1.13;;;;;;;;;;5365148;26;20115;-69
2024/04/19 01:35:37;;;;;;;2.17;1.00;;;;;;;;;;5362642;26;20016;-68
2024/04/19 01:38:03;;;;;;;2.35;0.90;;;;;;;;;;5360881;26;20011;-69
2024/04/19 01:40:29;;;;;;;1.40;0.88;;;;;;;;;;5362939;26;20278;-69
2024/04/19 01:42:55;;;;;;;1.60;1.10;;;;;;;;;;5361201;26;20009;-70
2024/04/19 01:45:21;;;;;;;1.30;0.88;;;;;;;;;;5356786;26;20015;-70
2024/04/19 01:47:47;;;;;;;0.82;0.80;;;;;;;;;;5366704;26;20011;-69
2024/04/19 01:50:13;;;;;;;2.63;1.10;;;;;;;;;;5357741;26;20077;-69
2024/04/19 01:52:39;;;;;;;1.58;1.00;;;;;;;;;;5349378;26;20502;-69
2024/04/19 01:55:05;;;;;;;2.63;0.90;;;;;;;;;;5362694;26;20486;-69
2024/04/19 01:57:31;;;;;;;4.35;1.20;;;;;;;;;;5355371;26;20020;-70
2024/04/19 01:59:57;;;;;;;3.25;1.15;;;;;;;;;;5365832;26;20131;-70
2024/04/19 02:02:24;;;;;;;0.70;0.70;;;;;;;;;;5354291;26;20001;-69
2024/04/19 02:04:50;;;;;;;2.35;1.00;;;;;;;;;;5347514;26;20037;-69
2024/04/19 02:07:16;;;;;;;3.08;1.27;;;;;;;;;;5356558;26;20000;-70
2024/04/19 02:09:42;;;;;;;1.60;1.13;;;;;;;;;;5364145;26;20455;-70
2024/04/19 02:12:08;;;;;;;2.60;1.52;;;;;;;;;;5361551;26;20012;-69
2024/04/19 02:14:34;;;;;;;2.38;1.33;;;;;;;;;;5363838;26;20123;-69
2024/04/19 02:17:00;;;;;;;3.63;1.23;;;;;;;;;;5360652;26;20153;-70
2024/04/19 02:19:29;;;;;;;2.47;1.40;;;;;;;;;;5369427;26;20008;-69
2024/04/19 02:21:55;;;;;;;2.13;1.10;;;;;;;;;;5365712;26;20001;-70
2024/04/19 02:24:21;;;;;;;2.75;1.25;;;;;;;;;;5373794;26;20000;-70
2024/04/19 02:26:52;;;;;;;2.38;1.17;;;;;;;;;;5364151;26;20001;-69
2024/04/19 02:32:02;;;;;;;2.40;1.38;;;;;;;;;;5369115;26;19929;-69
2024/04/19 02:34:28;;;;;;;2.38;1.30;;;;;;;;;;5367404;26;20000;-69
2024/04/19 02:36:54;;;;;;;2.08;1.08;;;;;;;;;;5365132;26;20015;-69
2024/04/19 02:39:20;;;;;;;1.98;1.33;;;;;;;;;;5365699;26;20443;-70
2024/04/19 02:41:46;;;;;;;2.47;1.30;;;;;;;;;;5364343;26;20341;-70
2024/04/19 02:44:12;;;;;;;2.88;1.63;;;;;;;;;;5369490;26;20216;-69
2024/04/19 02:46:38;;;;;;;1.92;1.08;;;;;;;;;;5364583;26;20008;-69
2024/04/19 02:49:04;;;;;;;2.20;1.30;;;;;;;;;;5369817;26;19996;-70
2024/04/19 02:51:29;;;;;;;2.47;1.40;;;;;;;;;;5363899;26;20493;-69
2024/04/19 02:53:55;;;;;;;3.55;1.90;;;;;;;;;;5365915;26;20000;-70
2024/04/19 02:56:21;;;;;;;1.70;1.13;;;;;;;;;;5352709;26;20103;-70
2024/04/19 02:58:47;;;;;;;1.85;1.00;;;;;;;;;;5370884;26;20020;-69
2024/04/19 03:01:13;;;;;;;2.40;1.58;;;;;;;;;;5359449;26;20001;-70
2024/04/19 03:03:39;;;;;;;4.05;1.40;;;;;;;;;;5354209;26;20302;-69
2024/04/19 03:06:05;;;;;;;3.50;1.42;;;;;;;;;;5365449;26;20336;-69
2024/04/19 03:08:31;;;;;;;5.90;1.35;;;;;;;;;;5363985;26;20005;-70
2024/04/19 03:10:57;;;;;;;3.03;1.45;;;;;;;;;;5364283;26;20576;-70
2024/04/19 03:13:23;;;;;;;3.03;1.60;;;;;;;;;;5355766;26;19996;-69
2024/04/19 03:15:49;;;;;;;3.85;1.90;;;;;;;;;;5360212;26;20000;-69
2024/04/19 03:18:14;;;;;;;2.20;1.42;;;;;;;;;;5364154;26;20012;-69
2024/04/19 03:20:40;;;;;;;2.67;1.52;;;;;;;;;;5357047;26;20024;-68
2024/04/19 03:23:06;;;;;;;3.55;1.85;;;;;;;;;;5362348;26;20115;-68
2024/04/19 03:25:35;;;;;;;3.88;1.88;;;;;;;;;;5369926;26;20008;-68
2024/04/19 03:28:00;;;;;;;3.05;1.60;;;;;;;;;;5357843;26;20160;-68
2024/04/19 03:30:33;;;;;;;3.35;1.70;;;;;;;;;;5356908;26;20119;-68
2024/04/19 03:32:59;;;;;;;2.83;2.13;;;;;;;;;;5361533;26;20036;-67
2024/04/19 03:35:25;;;;;;;2.97;1.75;;;;;;;;;;5368317;26;20141;-68
2024/04/19 03:37:52;;;;;;;2.92;1.50;;;;;;;;;;5371984;26;20014;-67
2024/04/19 03:40:18;;;;;;;3.45;2.03;;;;;;;;;;5363440;26;20006;-68
2024/04/19 03:42:48;;;;;;;3.47;2.10;;;;;;;;;;5353252;26;20714;-68
2024/04/19 03:47:58;;;;;;;3.95;2.05;;;;;;;;;;5356015;26;20409;-68
2024/04/19 03:50:24;;;;;;;4.22;1.92;;;;;;;;;;5368807;26;20004;-68
2024/04/19 03:52:50;;;;;;;2.83;1.85;;;;;;;;;;5358387;26;20367;-68
2024/04/19 03:55:16;;;;;;;4.03;2.10;;;;;;;;;;5361410;26;19996;-67
2024/04/19 03:57:42;;;;;;;2.78;1.67;;;;;;;;;;5346356;26;20001;-67
2024/04/19 04:00:09;;;;;;;5.00;2.20;;;;;;;;;;5360625;26;20131;-68
2024/04/19 04:02:34;;;;;;;3.75;2.42;;;;;;;;;;5367793;26;20160;-68
2024/04/19 04:05:00;;;;;;;3.88;2.25;;;;;;;;;;5365420;26;20016;-68
2024/04/19 04:07:26;;;;;;;3.47;1.98;;;;;;;;;;5364710;26;20000;-68
2024/04/19 04:09:52;;;;;;;3.78;1.92;;;;;;;;;;5340779;26;20294;-68
2024/04/19 04:12:18;;;;;;;3.67;2.00;;;;;;;;;;5352767;26;20001;-68
2024/04/19 04:14:44;;;;;;;3.63;2.00;;;;;;;;;;5369028;26;20478;-68
2024/04/19 04:17:10;;;;;;;3.17;2.05;;;;;;;;;;5365997;26;20066;-68
2024/04/19 04:19:36;;;;;;;4.38;2.63;;;;;;;;;;5358181;26;20016;-68
2024/04/19 04:22:02;;;;;;;5.78;2.58;;;;;;;;;;5353771;26;20099;-67
2024/04/19 04:24:28;;;;;;;4.05;2.22;;;;;;;;;;5367861;26;20101;-68
2024/04/19 04:26:54;;;;;;;2.85;1.83;;;;;;;;;;5367970;26;20015;-67
2024/04/19 04:29:20;;;;;;;4.32;2.00;;;;;;;;;;5353377;26;20586;-66
2024/04/19 04:31:46;;;;;;;4.65;2.58;;;;;;;;;;5361157;26;20053;-66
2024/04/19 04:34:12;;;;;;;3.58;2.10;;;;;;;;;;5366916;26;19996;-66
2024/04/19 04:36:39;;;;;;;2.40;1.75;;;;;;;;;;5370878;26;20004;-65
2024/04/19 04:39:06;;;;;;;3.92;2.13;;;;;;;;;;5370280;26;20135;-66
2024/04/19 04:41:36;;;;;;;3.38;1.90;;;;;;;;;;5367086;26;20420;-66
2024/04/19 04:44:02;;;;;;;2.83;1.63;;;;;;;;;;5369326;26;20021;-73
2024/04/19 04:46:28;;;;;;;2.80;1.80;;;;;;;;;;5362979;26;20011;-66
2024/04/19 04:48:54;;;;;;;3.80;1.98;;;;;;;;;;5367097;26;20441;-67
2024/04/19 04:51:20;;;;;;;3.13;1.80;;;;;;;;;;5368421;26;20000;-66
2024/04/19 04:53:46;;;;;;;2.17;1.52;;;;;;;;;;5357263;26;20145;-66
2024/04/19 04:56:12;;;;;;;3.60;1.67;;;;;;;;;;5363177;26;20413;-70
2024/04/19 04:58:38;;;;;;;2.03;1.30;;;;;;;;;;5364744;26;20062;-70
2024/04/19 05:01:04;;;;;;;2.40;1.35;;;;;;;;;;5346087;26;20105;-70
2024/04/19 05:03:30;;;;;;;2.88;1.60;;;;;;;;;;5368100;26;20050;-66
2024/04/19 05:05:56;;;;;;;2.90;1.50;;;;;;;;;;5367657;26;20000;-66
2024/04/19 05:08:21;;;;;;;4.15;1.77;;;;;;;;;;5356021;26;20812;-66
2024/04/19 05:10:47;;;;;;;2.38;1.50;;;;;;;;;;5354982;26;20073;-67
2024/04/19 05:13:13;;;;;;;2.80;1.75;;;;;;;;;;5367292;26;19992;-68
2024/04/19 05:15:40;;;;;;;2.97;1.75;;;;;;;;;;5369024;26;20012;-68
2024/04/19 05:18:06;;;;;;;4.15;1.85;;;;;;;;;;5363861;26;20079;-68
2024/04/19 05:20:32;;;;;;;3.47;1.98;;;;;;;;;;5362105;26;19996;-69
2024/04/19 05:22:58;;;;;;;2.88;1.75;;;;;;;;;;5363467;26;20061;-68
2024/04/19 05:25:24;;;;;;;3.95;1.73;;;;;;;;;;5362076;26;20011;-68
2024/04/19 05:27:50;;;;;;;3.13;1.80;;;;;;;;;;5358276;26;20000;-66
2024/04/19 05:30:16;;;;;;;2.13;1.42;;;;;;;;;;5362555;26;20304;-66
2024/04/19 05:32:42;;;;;;;2.28;1.73;;;;;;;;;;5362947;26;20012;-66
2024/04/19 05:35:08;;;;;;;2.53;1.50;;;;;;;;;;5358255;26;20047;-66
2024/04/19 05:37:34;;;;;;;3.55;2.00;;;;;;;;;;5346492;26;20005;-66
2024/04/19 05:40:00;;;;;;;3.28;1.50;;;;;;;;;;5355754;26;20011;-66
2024/04/19 05:42:26;;;;;;;1.90;1.40;;;;;;;;;;5364589;26;20011;-66
2024/04/19 05:44:52;;;;;;;2.63;1.60;;;;;;;;;;5366711;26;19996;-67
2024/04/19 05:47:18;;;;;;;3.00;1.95;;;;;;;;;;5346347;26;20426;-65
2024/04/19 05:49:44;;;;;;;2.80;1.90;;;;;;;;;;5362988;26;20046;-69
2024/04/19 05:52:09;;;;;;;2.42;1.55;;;;;;;;;;5353950;26;20087;-69
2024/04/19 05:54:36;;;;;;;3.40;1.85;;;;;;;;;;5360189;26;20024;-69
2024/04/19 05:57:02;;;;;;;2.72;1.75;;;;;;;;;;5351663;26;20105;-66
2024/04/19 05:59:27;;;;;;;2.75;1.58;;;;;;;;;;5368505;26;20428;-66
2024/04/19 06:01:53;;;;;;;4.13;1.80;;;;;;;;;;5350057;26;20001;-66
2024/04/19 06:04:19;;;;;;;2.67;1.83;;;;;;;;;;5339725;26;20116;-66
2024/04/19 06:06:45;;;;;;;3.30;1.85;;;;;;;;;;5354794;26;20012;-66
2024/04/19 06:09:11;;;;;;;3.13;1.92;;;;;;;;;;5364163;26;20078;-67
2024/04/19 06:11:37;;;;;;;2.35;1.65;;;;;;;;;;5343811;26;20283;-67
2024/04/19 06:14:03;;;;;;;3.28;1.95;;;;;;;;;;5355303;26;20365;-66
2024/04/19 06:16:29;;;;;;;3.45;1.88;;;;;;;;;;5356494;26;20020;-66
2024/04/19 06:18:54;;;;;;;3.13;1.77;;;;;;;;;;5357051;26;20012;-66
2024/04/19 06:21:20;;;;;;;2.92;1.85;;;;;;;;;;5352281;26;20310;-66
2024/04/19 06:23:46;;;;;;;2.75;2.10;;;;;;;;;;5355425;26;20036;-66
2024/04/19 06:26:12;;;;;;;4.32;2.25;;;;;;;;;;5353904;26;20131;-66
2024/04/19 06:28:40;;;;;;;4.82;1.90;;;;;;;;;;5344853;26;20004;-67
2024/04/19 06:31:10;;;;;;;2.33;1.77;;;;;;;;;;5358189;26;20371;-66
2024/04/19 06:33:36;;;;;;;2.78;2.00;;;;;;;;;;5357711;26;20077;-67
2024/04/19 06:36:02;;;;;;;3.45;2.10;;;;;;;;;;5363863;26;20023;-66
2024/04/19 06:38:28;;;;;;;3.00;2.20;;;;;;;;;;5367107;26;20397;-68
2024/04/19 06:40:54;;;;;;;3.63;1.95;;;;;;;;;;5359422;26;20029;-67
2024/04/19 06:43:19;;;;;;;4.80;2.42;;;;;;;;;;5365124;26;20470;-67
2024/04/19 06:45:46;;;;;;;3.60;2.22;;;;;;;;;;5367092;26;20084;-66
2024/04/19 06:48:12;;;;;;;3.45;2.10;;;;;;;;;;5366441;26;20432;-67
2024/04/19 06:50:37;;;;;;;4.10;2.45;;;;;;;;;;5364228;26;20000;-66
2024/04/19 06:53:04;;;;;;;3.22;2.25;;;;;;;;;;5332559;26;20347;-66
2024/04/19 06:55:32;;;;;;;3.65;2.15;;;;;;;;;;5365581;26;20016;-66
2024/04/19 06:57:58;;;;;;;4.07;2.05;;;;;;;;;;5361044;26;19996;-67
2024/04/19 07:00:24;;;;;;;3.50;2.28;;;;;;;;;;5366560;26;20000;-67
2024/04/19 07:02:50;;;;;;;3.60;2.10;;;;;;;;;;5381897;26;20417;-67
2024/04/19 07:05:16;;;;;;;2.15;1.67;;;;;;;;;;5370339;26;20018;-67
2024/04/19 07:07:42;;;;;;;3.17;2.10;;;;;;;;;;5386496;26;20048;-67
2024/04/19 07:10:09;;;;;;;4.55;2.80;;;;;;;;;;5366395;26;20016;-66
2024/04/19 07:12:35;;;;;;;4.95;2.75;;;;;;;;;;5363140;26;20339;-67
2024/04/19 07:15:01;;;;;;;3.83;2.40;;;;;;;;;;5369206;26;20005;-67
2024/04/19 07:17:27;;;;;;;6.68;2.90;;;;;;;;;;5360115;26;20108;-66
2024/04/19 07:19:53;;;;;;;4.57;2.83;;;;;;;;;;5362721;26;20194;-67
2024/04/19 07:22:18;;;;;;;6.60;3.67;;;;;;;;;;5355468;26;20082;-66
2024/04/19 07:24:44;;;;;;;6.50;2.97;;;;;;;;;;5371158;26;20000;-66
2024/04/19 07:27:10;;;;;;;5.32;2.95;;;;;;;;;;5366645;26;20028;-67
2024/04/19 07:29:36;;;;;;;4.78;3.15;;;;;;;;;;5346284;26;20356;-67
2024/04/19 07:32:02;;;;;;;4.85;3.03;;;;;;;;;;5360881;26;20342;-67
2024/04/19 07:34:28;;;;;;;5.32;3.38;;;;;;;;;;5370880;26;20004;-66
2024/04/19 07:36:54;;;;;;;5.20;3.10;;;;;;;;;;5350190;26;20028;-67
2024/04/19 07:39:20;;;;;;;4.40;2.78;;;;;;;;;;5359873;26;20381;-66
2024/04/19 07:41:46;;;;;;;5.88;3.10;;;;;;;;;;5359744;26;20015;-67
2024/04/19 07:44:12;;;;;;;5.15;3.17;;;;;;;;;;5368875;26;20459;-67
2024/04/19 07:46:38;;;;;;;4.55;2.58;;;;;;;;;;5360085;26;20016;-66
2024/04/19 07:49:04;;;;;;;4.80;3.08;;;;;;;;;;5376536;26;20089;-67
2024/04/19 07:51:30;;;;;;;5.80;3.22;;;;;;;;;;5343631;26;20008;-66
2024/04/19 07:53:57;;;;;;;4.97;3.13;;;;;;;;;;5357013;26;20316;-67
2024/04/19 07:56:23;;;;;;;5.70;2.90;;;;;;;;;;5367359;26;20008;-66
2024/04/19 07:58:48;;;;;;;4.03;2.17;;;;;;;;;;5378739;26;20447;-67
2024/04/19 08:01:14;;;;;;;3.53;2.08;;;;;;;;;;5365419;26;20074;-67
2024/04/19 08:03:41;;;;;;;4.03;2.30;;;;;;;;;;5360695;26;20015;-67
2024/04/19 08:06:07;;;;;;;4.18;2.20;;;;;;;;;;5368154;26;20004;-67
2024/04/19 08:08:33;;;;;;;3.40;1.63;;;;;;;;;;5368791;26;20000;-67
2024/04/19 08:11:01;;;;;;;3.65;2.22;;;;;;;;;;5360116;26;20007;-67
2024/04/19 08:13:27;;;;;;;2.53;1.77;;;;;;;;;;5367067;26;20011;-67
2024/04/19 08:15:53;;;;;;;3.83;2.28;;;;;;;;;;5358357;26;20297;-67
2024/04/19 08:18:19;;;;;;;2.45;1.52;;;;;;;;;;5350279;26;20034;-67
2024/04/19 08:20:46;;;;;;;3.13;1.90;;;;;;;;;;5370768;26;20294;-67
2024/04/19 08:23:12;;;;;;;1.73;1.42;;;;;;;;;;5373611;26;20019;-67
2024/04/19 08:25:37;;;;;;;2.55;1.20;;;;;;;;;;5371677;26;20123;-67
2024/04/19 08:28:03;;;;;;;4.13;1.30;;;;;;;;;;5356703;26;20333;-67
2024/04/19 08:30:30;;;;;;;2.47;0.90;;;;;;;;;;5352931;26;20047;-67
2024/04/19 08:32:58;;;;;;;1.95;0.70;;;;;;;;;;5371476;26;20285;-67
2024/04/19 08:35:26;;;;;;;2.63;1.27;;;;;;;;;;5366158;26;19997;-67
2024/04/19 08:37:52;;;;;;;2.20;0.93;;;;;;;;;;5372036;26;20405;-67
2024/04/19 08:40:18;;;;;;;1.83;0.50;;;;;;;;;;5357736;26;20017;-67
2024/04/19 08:42:44;;;;;;;0.82;0.57;;;;;;;;;;5360515;26;20014;-67
2024/04/19 08:45:11;;;;;;;3.47;1.00;;;;;;;;;;5363877;26;20033;-67
2024/04/19 08:47:37;;;;;;;0.82;0.43;;;;;;;;;;5363180;26;20108;-67
2024/04/19 08:50:03;;;;;;;4.32;1.08;;;;;;;;;;5367512;26;20015;-67
2024/04/19 08:52:30;;;;;;;2.70;0.73;;;;;;;;;;5360652;26;20001;-67
2024/04/19 08:54:57;;;;;;;3.50;0.77;;;;;;;;;;5360972;26;20000;-67
2024/04/19 08:57:26;;;;;;;2.10;1.00;;;;;;;;;;5346177;26;20001;-67
2024/04/19 08:59:52;;;;;;;4.47;0.82;;;;;;;;;;5362251;26;20281;-67
2024/04/19 09:02:19;;;;;;;1.58;0.60;;;;;;;;;;5366351;26;20455;-67
2024/04/19 09:04:45;;;;;;;3.45;0.68;;;;;;;;;;5359689;26;20438;-67
2024/04/19 09:07:11;;;;;;;1.15;0.57;;;;;;;;;;5365803;26;20019;-68
2024/04/19 09:09:37;;;;;;;2.22;0.57;;;;;;;;;;5365326;26;20001;-67
2024/04/19 09:12:06;;;;;;;1.35;0.68;;;;;;;;;;5355192;26;20006;-67
2024/04/19 09:14:32;;;;;;;0.50;0.38;;;;;;;;;;5367585;26;20345;-66
2024/04/19 09:16:58;;;;;;;2.10;0.52;;;;;;;;;;5363467;26;20072;-67
2024/04/19 09:19:24;;;;;;;0.32;0.32;;;;;;;;;;5366518;26;19996;-66
2024/04/19 09:21:52;;;;;;;1.25;0.75;;;;;;;;;;5369207;26;20059;-66
2024/04/19 09:24:18;;;;;;;0.52;0.38;;;;;;;;;;5365578;26;20128;-66
2024/04/19 09:26:44;;;;;;;1.55;0.40;;;;;;;;;;5368120;26;20084;-66
2024/04/19 09:29:10;;;;;;;0.60;0.32;;;;;;;;;;5362330;26;20416;-66
2024/04/19 09:31:36;;;;;;;0.98;0.65;;;;;;;;;;5359935;26;20004;-67
2024/04/19 09:34:02;;;;;;;0.63;0.50;;;;;;;;;;5360807;26;20015;-67
2024/04/19 09:36:28;;;;;;;2.65;0.55;;;;;;;;;;5366338;26;20000;-67
2024/04/19 09:38:55;;;;;;;0.80;0.50;;;;;;;;;;5354011;26;20000;-67
2024/04/19 09:41:25;;;;;;;0.80;0.47;;;;;;;;;;5351920;26;20001;-68
2024/04/19 09:43:51;;;;;;;1.75;0.43;;;;;;;;;;5358231;26;20310;-67
2024/04/19 09:46:20;;;;;;;2.17;0.60;;;;;;;;;;5358894;26;20461;-67
2024/04/19 09:48:47;;;;;;;1.35;0.40;;;;;;;;;;5361567;26;20055;-67
2024/04/19 09:51:17;;;;;;;1.90;0.65;;;;;;;;;;5355005;26;20021;-67
2024/04/19 09:53:49;;;;;;;0.57;0.32;;;;;;;;;;5358841;26;20374;-67
2024/04/19 09:56:25;;;;;;;1.27;0.70;;;;;;;;;;5351449;26;20289;-67
2024/04/19 09:58:51;;;;;;;0.90;0.60;;;;;;;;;;5368576;26;20050;-67
2024/04/19 10:01:17;;;;;;;2.08;0.90;;;;;;;;;;5353269;26;20073;-67
2024/04/19 10:03:43;;;;;;;1.45;0.70;;;;;;;;;;5367434;26;20425;-67
2024/04/19 10:06:09;;;;;;;1.30;0.50;;;;;;;;;;5366527;26;20373;-67
2024/04/19 10:08:35;;;;;;;0.98;0.40;;;;;;;;;;5363169;26;20108;-67
2024/04/19 10:11:01;;;;;;;0.45;0.45;;;;;;;;;;5343556;26;20019;-68
2024/04/19 10:13:30;;;;;;;1.63;0.57;;;;;;;;;;5355645;26;20498;-67
2024/04/19 10:15:57;;;;;;;1.85;0.47;;;;;;;;;;5357729;26;20001;-67
2024/04/19 10:18:24;;;;;;;0.52;0.43;;;;;;;;;;5346728;26;19997;-67
2024/04/19 10:20:50;;;;;;;1.30;0.73;;;;;;;;;;5363483;26;20134;-67
2024/04/19 10:23:16;;;;;;;3.25;0.90;;;;;;;;;;5370658;26;20431;-69
2024/04/19 10:25:42;;;;;;;1.60;1.00;;;;;;;;;;5369375;26;20448;-68
2024/04/19 10:28:11;;;;;;;1.08;0.40;;;;;;;;;;5352836;26;20052;-68
2024/04/19 10:30:40;;;;;;;1.38;0.55;;;;;;;;;;5359208;26;20289;-67
2024/04/19 10:33:06;;;;;;;1.05;0.57;;;;;;;;;;5373412;26;20000;-68
2024/04/19 10:35:35;;;;;;;2.45;0.75;;;;;;;;;;5370598;26;20019;-68
2024/04/19 10:38:01;;;;;;;1.67;0.47;;;;;;;;;;5364491;26;20015;-67
2024/04/19 10:40:28;;;;;;;1.27;0.57;;;;;;;;;;5354902;26;20000;-67
2024/04/19 10:43:01;;;;;;;2.40;0.75;;;;;;;;;;5358894;26;20024;-68
2024/04/19 10:45:30;;;;;;;2.90;0.93;;;;;;;;;;5371608;26;20411;-67
2024/04/19 10:47:57;;;;;;;1.85;0.63;;;;;;;;;;5369919;26;20012;-68
2024/04/19 10:50:23;;;;;;;1.30;0.50;;;;;;;;;;5373222;26;20054;-67
2024/04/19 10:52:51;;;;;;;1.67;0.70;;;;;;;;;;5356638;26;20036;-68
2024/04/19 10:55:17;;;;;;;2.63;0.55;;;;;;;;;;5354152;26;20001;-68
2024/04/19 10:57:43;;;;;;;1.63;0.90;;;;;;;;;;5358683;26;20004;-68
2024/04/19 11:00:09;;;;;;;1.52;0.68;;;;;;;;;;5356867;26;20809;-68
2024/04/19 11:02:37;;;;;;;3.42;0.90;;;;;;;;;;5355734;26;20013;-68
2024/04/19 11:05:04;;;;;;;2.47;0.75;;;;;;;;;;5360269;26;20323;-68
2024/04/19 11:07:30;;;;;;;3.72;1.27;;;;;;;;;;5352108;26;20005;-69
2024/04/19 11:09:56;;;;;;;2.75;0.70;;;;;;;;;;5325436;26;20416;-67
2024/04/19 11:12:25;;;;;;;0.75;0.55;;;;;;;;;;5356248;26;20028;-68
2024/04/19 11:14:51;;;;;;;0.73;0.43;;;;;;;;;;5350943;26;20004;-67
2024/04/19 11:17:17;;;;;;;1.73;0.63;;;;;;;;;;5358375;26;20041;-67
2024/04/19 11:19:43;;;;;;;0.68;0.38;;;;;;;;;;5355521;26;20138;-68
2024/04/19 11:22:09;;;;;;;3.78;1.35;;;;;;;;;;5362162;26;20093;-68
2024/04/19 11:24:35;;;;;;;2.33;0.80;;;;;;;;;;5350822;26;20036;-68
2024/04/19 11:27:01;;;;;;;1.45;0.70;;;;;;;;;;5354428;26;20124;-68
2024/04/19 11:29:27;;;;;;;1.48;0.65;;;;;;;;;;5364663;26;20019;-67
2024/04/19 11:31:53;;;;;;;1.45;0.68;;;;;;;;;;5365740;26;20012;-67
2024/04/19 11:34:19;;;;;;;1.38;0.55;;;;;;;;;;5367023;26;20098;-68
2024/04/19 11:36:46;;;;;;;2.88;1.23;;;;;;;;;;5340466;26;20005;-68
2024/04/19 11:39:12;;;;;;;0.95;0.47;;;;;;;;;;5349668;26;20350;-68
2024/04/19 11:41:41;;;;;;;2.22;0.52;;;;;;;;;;5361036;26;20393;-67
2024/04/19 11:44:08;;;;;;;2.50;0.90;;;;;;;;;;5359457;26;20004;-67
2024/04/19 11:46:34;;;;;;;2.45;0.70;;;;;;;;;;5358053;26;20139;-67
2024/04/19 11:49:04;;;;;;;1.85;0.60;;;;;;;;;;5361863;26;20000;-69
2024/04/19 11:51:30;;;;;;;1.15;0.60;;;;;;;;;;5357769;26;20079;-67
2024/04/19 11:53:56;;;;;;;2.88;1.17;;;;;;;;;;5369343;26;20131;-67
2024/04/19 11:56:22;;;;;;;2.50;0.55;;;;;;;;;;5369711;26;20200;-67
2024/04/19 11:58:52;;;;;;;0.43;0.43;;;;;;;;;;5363120;26;19997;-67
2024/04/19 12:01:18;;;;;;;2.67;0.57;;;;;;;;;;5370427;26;20004;-68
2024/04/19 12:03:44;;;;;;;1.73;0.80;;;;;;;;;;5356456;26;20000;-67
2024/04/19 12:06:10;;;;;;;2.70;0.70;;;;;;;;;;5362573;26;20035;-68
2024/04/19 12:08:36;;;;;;;3.22;1.00;;;;;;;;;;5340834;26;20008;-68
2024/04/19 12:11:03;;;;;;;3.85;0.85;;;;;;;;;;5366485;26;20020;-68
2024/04/19 12:13:29;;;;;;;5.03;0.88;;;;;;;;;;5359598;26;20011;-67
2024/04/19 12:15:54;;;;;;;1.60;0.60;;;;;;;;;;5354936;26;20048;-67
2024/04/19 12:18:20;;;;;;;2.10;0.70;;;;;;;;;;5348912;26;20086;-68
2024/04/19 12:20:48;;;;;;;1.02;0.55;;;;;;;;;;5376359;26;20290;-68
2024/04/19 12:23:14;;;;;;;2.30;0.57;;;;;;;;;;5355595;26;19996;-68
2024/04/19 12:25:40;;;;;;;3.97;0.73;;;;;;;;;;5375203;26;20423;-68
2024/04/19 12:28:06;;;;;;;2.55;0.70;;;;;;;;;;5368793;26;20008;-67
2024/04/19 12:30:32;;;;;;;3.47;0.77;;;;;;;;;;5369273;26;20120;-68
2024/04/19 12:32:58;;;;;;;1.98;0.60;;;;;;;;;;5358636;26;20019;-68
2024/04/19 12:35:24;;;;;;;2.22;0.50;;;;;;;;;;5364957;26;20447;-67
2024/04/19 12:37:50;;;;;;;1.33;0.80;;;;;;;;;;5351169;26;20015;-67
2024/04/19 12:40:16;;;;;;;1.80;0.90;;;;;;;;;;5359281;26;20004;-68
2024/04/19 12:42:42;;;;;;;2.17;0.80;;;;;;;;;;5368315;26;20177;-67
2024/04/19 12:45:08;;;;;;;0.52;0.40;;;;;;;;;;5372307;26;20014;-67
2024/04/19 12:47:34;;;;;;;1.85;0.57;;;;;;;;;;5356118;26;20019;-67
2024/04/19 12:50:00;;;;;;;2.83;0.73;;;;;;;;;;5365085;26;20012;-67
2024/04/19 12:52:25;;;;;;;1.45;0.77;;;;;;;;;;5371050;26;20465;-66
2024/04/19 12:54:51;;;;;;;1.75;0.52;;;;;;;;;;5357766;26;20015;-67
2024/04/19 12:57:17;;;;;;;0.82;0.50;;;;;;;;;;5355022;26;19997;-67
2024/04/19 12:59:45;;;;;;;1.15;0.65;;;;;;;;;;5361555;26;20422;-68
2024/04/19 13:02:11;;;;;;;1.10;0.52;;;;;;;;;;5347051;26;20324;-67
2024/04/19 13:04:37;;;;;;;3.50;0.80;;;;;;;;;;5363609;26;20016;-68
2024/04/19 13:07:02;;;;;;;2.28;1.15;;;;;;;;;;5361472;26;20011;-67
2024/04/19 13:09:28;;;;;;;4.05;1.00;;;;;;;;;;5335132;26;20190;-69
2024/04/19 13:11:54;;;;;;;2.25;0.68;;;;;;;;;;5368041;26;19996;-68
2024/04/19 13:14:22;;;;;;;4.05;1.33;;;;;;;;;;5359634;26;20085;-69
2024/04/19 13:16:48;;;;;;;2.42;0.77;;;;;;;;;;5368462;26;20004;-69
2024/04/19 13:19:14;;;;;;;1.58;0.80;;;;;;;;;;5368564;26;20119;-68
2024/04/19 13:21:40;;;;;;;2.83;1.17;;;;;;;;;;5372638;26;20346;-68
2024/04/19 13:24:06;;;;;;;1.33;0.55;;;;;;;;;;5369745;26;20413;-69
2024/04/19 13:26:32;;;;;;;1.90;0.82;;;;;;;;;;5382437;26;20011;-69
2024/04/19 13:28:58;;;;;;;2.53;0.65;;;;;;;;;;5359578;26;20457;-68
2024/04/19 13:31:24;;;;;;;2.10;0.90;;;;;;;;;;5363418;26;20324;-68
2024/04/19 13:33:50;;;;;;;3.53;0.90;;;;;;;;;;5366226;26;20699;-68
2024/04/19 13:36:17;;;;;;;2.67;0.75;;;;;;;;;;5359798;26;20020;-68
2024/04/19 13:38:43;;;;;;;1.42;0.45;;;;;;;;;;5366577;26;20435;-69
2024/04/19 13:41:09;;;;;;;1.50;0.50;;;;;;;;;;5352690;26;20410;-69
2024/04/19 13:43:35;;;;;;;4.60;0.82;;;;;;;;;;5354635;26;20131;-69
2024/04/19 13:46:03;;;;;;;2.40;0.40;;;;;;;;;;5357249;26;20038;-69
2024/04/19 13:48:36;;;;;;;1.60;0.65;;;;;;;;;;5359743;26;20086;-68
2024/04/19 13:51:02;;;;;;;2.80;0.70;;;;;;;;;;5368305;26;20400;-69
2024/04/19 13:53:28;;;;;;;3.13;0.85;;;;;;;;;;5363260;26;20011;-68
2024/04/19 13:55:54;;;;;;;2.80;0.68;;;;;;;;;;5365946;26;20004;-69
2024/04/19 13:58:23;;;;;;;1.95;0.55;;;;;;;;;;5355328;26;19993;-68
2024/04/19 14:00:50;;;;;;;1.70;1.05;;;;;;;;;;5363346;26;20112;-68
2024/04/19 14:03:17;;;;;;;1.63;0.55;;;;;;;;;;5351480;26;20088;-68
2024/04/19 14:05:43;;;;;;;1.10;0.60;;;;;;;;;;5354279;26;20133;-68
2024/04/19 14:08:09;;;;;;;2.72;0.70;;;;;;;;;;5351268;26;20012;-68
2024/04/19 14:10:35;;;;;;;0.63;0.47;;;;;;;;;;5365960;26;20070;-68
2024/04/19 14:13:02;;;;;;;2.35;0.65;;;;;;;;;;5367949;26;20011;-67
2024/04/19 14:15:28;;;;;;;3.20;0.77;;;;;;;;;;5346098;26;20068;-68
2024/04/19 14:17:54;;;;;;;3.20;0.77;;;;;;;;;;5363251;26;20427;-68
2024/04/19 14:20:20;;;;;;;3.47;0.85;;;;;;;;;;5352400;26;20494;-68
2024/04/19 14:22:46;;;;;;;2.20;1.15;;;;;;;;;;5363540;26;20078;-68
2024/04/19 14:25:12;;;;;;;2.50;0.82;;;;;;;;;;5390079;26;20077;-68
2024/04/19 14:27:43;;;;;;;2.33;0.70;;;;;;;;;;5365227;26;20037;-68
2024/04/19 14:30:09;;;;;;;;;;;;;;;;;;5370848;26;20028;-68
2024/04/19 14:32:35;;;;;;;1.92;0.60;;;;;;;;;;5353650;26;20035;-68
2024/04/19 14:35:01;;;;;;;1.27;0.60;;;;;;;;;;5353879;26;20320;-68
2024/04/19 14:37:27;;;;;;;3.92;0.82;;;;;;;;;;5364700;26;20023;-68
2024/04/19 14:39:53;;;;;;;2.40;0.43;;;;;;;;;;5362587;26;20000;-68
2024/04/19 14:42:20;;;;;;;0.98;0.90;;;;;;;;;;5372001;26;20120;-68